Main page
METAR-TAF:

METAR-TAF

Airports :

Prince Mohammad bin Abdulaziz Airport

Medina, Saudi Arabia

latitude: 24-33N, longitude: 039-42E, elevation: 654 m

Current weather observation

The report was made 22 minutes ago, at 05:00 UTC
Wind 7 kt from the North/Northeast
Temperature 22°C
Humidity 14%
Pressure 1014 hPa
Visibility 10 km or more
no clouds below 1500 m and no cumulonimbus

METAR: OEMA 200500Z 02007KT CAVOK 22/M07 Q1014 NOSIG

Time: 08:22 (05:22 UTC)

Forecast

The report was made 6 hours and 22 minutes ago, at 23:00 UTC
Forecast valid from 20 at 00 UTC to 21 at 06 UTC
Wind 3 kt from variable directions
Visibility 10 km or more
no clouds below 1500 m and no cumulonimbus
Becoming
from 20 at 10 UTC to 20 at 12 UTC
Wind 12 kt from the West/Northwest

TAF: OEMA 192300Z 2000/2106 VRB03KT CAVOK BECMG 2010/2012 30012KT

Weather observations and forecasts of more than 4000 airports (METAR and TAF reports).

The available stations are represented by yellow and red dots on the map.

Hover mouse over dot to see the name of the station.

Then click to see weather observations and forecasts.

To change the map : click on the green buttons with a black cross to zoom in, on the green button with a dash to zoom out, or on the green arrows for adjacent maps.


METAR-TAF: